MDT,Max TemperatureF,Mean TemperatureF,Min TemperatureF,Max Dew PointF,MeanDew PointF,Min DewpointF,Max Humidity, Mean Humidity, Min Humidity, Max Sea Level PressureIn, Mean Sea Level PressureIn, Min Sea Level PressureIn, Max VisibilityMiles, Mean VisibilityMiles, Min VisibilityMiles, Max Wind SpeedMPH, Mean Wind SpeedMPH, Max Gust SpeedMPH,PrecipitationIn, CloudCover, Events, WindDirDegrees
2013-9-1,88,67,46,48,46,42,86,55,23,30.13,30.07,30.00,10,10,10,15,5,18,0.00,0,,96
2013-9-2,96,76,56,57,52,46,72,48,24,30.04,29.94,29.85,10,10,10,23,9,28,0.00,0,,165
2013-9-3,100,84,68,61,56,51,61,41,21,29.91,29.87,29.81,10,10,10,15,7,20,0.00,0,,254
2013-9-4,97,79,60,68,61,56,97,64,30,30.15,30.02,29.94,10,9,2,35,5,46,0.42,1,Rain-Thunderstorm,168
2013-9-5,98,81,64,67,62,55,100,63,25,30.08,29.99,29.90,10,10,8,14,3,18,0.00,0,,158
2013-9-6,99,81,63,63,58,53,87,56,24,30.04,29.92,29.87,10,10,9,30,7,40,T,1,Rain-Thunderstorm,229
2013-9-7,97,82,67,63,61,58,81,56,30,29.98,29.90,29.83,10,10,10,21,8,29,T,1,,75
2013-9-8,87,76,65,67,65,61,100,74,48,29.98,29.87,29.71,10,7,0,25,7,36,0.02,3,Fog-Rain-Thunderstorm,5
2013-9-9,77,70,63,66,62,57,100,75,50,29.94,29.87,29.76,10,10,7,12,3,15,0.03,5,Rain,342
2013-9-10,75,66,56,64,56,51,100,73,46,30.14,30.06,29.95,10,9,5,8,1,10,T,3,,265
2013-9-11,78,67,56,58,56,53,93,70,47,30.21,30.18,30.14,10,10,10,9,2,12,0.00,5,,267
2013-9-12,84,67,49,57,51,47,100,64,28,30.30,30.23,30.16,10,10,8,16,7,22,0.00,1,,120
2013-9-13,66,64,61,59,55,48,90,73,56,30.15,30.02,29.88,10,10,5,26,15,32,0.12,7,Rain,163
2013-9-14,84,70,56,59,57,54,93,66,39,30.03,29.86,29.77,10,10,10,21,10,26,0.00,2,,316
2013-9-15,66,59,51,61,56,49,96,78,60,30.28,30.18,29.99,10,7,2,17,10,22,0.08,7,Rain,44
2013-9-16,70,60,50,55,53,49,96,78,59,30.26,30.10,29.92,10,10,10,29,14,33,0.00,4,,177
2013-9-17,93,73,52,56,51,45,100,60,19,29.91,29.76,29.63,10,10,6,16,7,20,0.00,0,,220
2013-9-18,92,75,57,52,48,41,75,47,18,29.80,29.64,29.57,10,10,10,24,9,30,0.00,0,,247
2013-9-19,71,55,39,47,40,34,79,53,26,30.19,30.04,29.85,10,10,10,25,9,33,0.00,1,,310
2013-9-20,77,55,32,40,34,30,92,57,21,30.22,30.09,29.96,10,10,10,9,2,13,0.00,0,,141
2013-9-21,94,65,36,43,34,28,85,48,10,29.94,29.75,29.58,10,10,5,18,7,26,0.00,0,,240
2013-9-22,94,72,50,59,47,36,93,54,14,29.65,29.54,29.41,10,9,5,20,6,26,0.18,3,Rain-Thunderstorm,236
2013-9-23,60,52,44,58,54,46,100,93,86,29.99,29.71,29.42,10,5,1,20,5,24,1.62,6,Rain,345
2013-9-24,76,59,41,51,44,40,100,64,27,30.07,29.95,29.75,10,9,2,25,9,35,0.00,1,,185
2013-9-25,80,68,55,51,45,40,67,50,33,29.72,29.54,29.36,10,10,10,29,15,35,0.00,0,,180
2013-9-26,72,60,48,49,45,40,93,64,35,29.81,29.71,29.53,10,10,10,25,13,31,0.00,1,,334
2013-9-27,51,47,42,43,40,37,92,78,63,30.02,29.91,29.80,10,9,4,22,11,29,0.22,7,Rain,11
2013-9-28,68,53,37,40,36,33,92,60,27,30.08,30.02,29.97,10,10,10,23,10,30,0.00,0,,265
2013-9-29,82,62,41,39,36,31,89,53,17,29.99,29.81,29.68,10,10,10,29,12,36,0.00,0,,237
2013-9-30,86,64,42,46,39,35,86,52,18,29.86,29.69,29.55,10,10,10,29,11,38,0.00,0,,239